sensor_id;sensor_type;location;lat;lon;timestamp;P1;durP1;ratioP1;P2;durP2;ratioP2
26181;SDS011;13927;51.534;11.866;2023-08-06T00:00:47;6.53;;;4.50;;
26181;SDS011;13927;51.534;11.866;2023-08-06T00:03:14;8.35;;;5.85;;
26181;SDS011;13927;51.534;11.866;2023-08-06T00:05:44;8.43;;;5.35;;
26181;SDS011;13927;51.534;11.866;2023-08-06T00:08:13;8.80;;;6.03;;
26181;SDS011;13927;51.534;11.866;2023-08-06T00:10:40;8.90;;;5.55;;
26181;SDS011;13927;51.534;11.866;2023-08-06T00:13:06;8.45;;;6.07;;
26181;SDS011;13927;51.534;11.866;2023-08-06T00:15:36;10.27;;;5.75;;
26181;SDS011;13927;51.534;11.866;2023-08-06T00:18:07;8.45;;;5.78;;
26181;SDS011;13927;51.534;11.866;2023-08-06T00:20:40;6.82;;;4.85;;
26181;SDS011;13927;51.534;11.866;2023-08-06T00:23:11;8.68;;;5.57;;
26181;SDS011;13927;51.534;11.866;2023-08-06T00:25:41;6.57;;;4.82;;
26181;SDS011;13927;51.534;11.866;2023-08-06T00:28:11;6.20;;;5.10;;
26181;SDS011;13927;51.534;11.866;2023-08-06T00:30:43;8.45;;;5.50;;
26181;SDS011;13927;51.534;11.866;2023-08-06T00:33:11;6.97;;;5.15;;
26181;SDS011;13927;51.534;11.866;2023-08-06T00:35:39;8.30;;;5.47;;
26181;SDS011;13927;51.534;11.866;2023-08-06T00:38:06;6.82;;;4.90;;
26181;SDS011;13927;51.534;11.866;2023-08-06T00:40:33;7.32;;;5.22;;
26181;SDS011;13927;51.534;11.866;2023-08-06T00:43:02;6.82;;;4.65;;
26181;SDS011;13927;51.534;11.866;2023-08-06T00:45:33;5.03;;;3.20;;
26181;SDS011;13927;51.534;11.866;2023-08-06T00:50:34;3.08;;;2.33;;
26181;SDS011;13927;51.534;11.866;2023-08-06T00:53:02;2.60;;;1.58;;
26181;SDS011;13927;51.534;11.866;2023-08-06T00:55:29;2.38;;;1.90;;
26181;SDS011;13927;51.534;11.866;2023-08-06T00:57:59;2.08;;;1.30;;
26181;SDS011;13927;51.534;11.866;2023-08-06T01:00:28;1.83;;;1.45;;
26181;SDS011;13927;51.534;11.866;2023-08-06T01:02:56;2.58;;;1.50;;
26181;SDS011;13927;51.534;11.866;2023-08-06T01:05:27;2.53;;;1.50;;
26181;SDS011;13927;51.534;11.866;2023-08-06T01:10:56;1.98;;;1.27;;
26181;SDS011;13927;51.534;11.866;2023-08-06T01:17:11;2.28;;;1.33;;
26181;SDS011;13927;51.534;11.866;2023-08-06T01:19:40;2.45;;;1.45;;
26181;SDS011;13927;51.534;11.866;2023-08-06T01:22:08;2.38;;;1.27;;
26181;SDS011;13927;51.534;11.866;2023-08-06T01:24:38;2.15;;;1.52;;
26181;SDS011;13927;51.534;11.866;2023-08-06T01:27:10;3.25;;;1.40;;
26181;SDS011;13927;51.534;11.866;2023-08-06T01:30:10;1.80;;;1.30;;
26181;SDS011;13927;51.534;11.866;2023-08-06T01:32:44;2.25;;;1.58;;
26181;SDS011;13927;51.534;11.866;2023-08-06T01:35:15;2.58;;;1.55;;
26181;SDS011;13927;51.534;11.866;2023-08-06T01:37:48;2.63;;;1.50;;
26181;SDS011;13927;51.534;11.866;2023-08-06T01:40:15;2.03;;;1.48;;
26181;SDS011;13927;51.534;11.866;2023-08-06T01:42:41;2.40;;;1.70;;
26181;SDS011;13927;51.534;11.866;2023-08-06T01:45:10;2.25;;;1.70;;
26181;SDS011;13927;51.534;11.866;2023-08-06T01:47:37;2.13;;;1.73;;
26181;SDS011;13927;51.534;11.866;2023-08-06T01:50:06;2.33;;;1.63;;
26181;SDS011;13927;51.534;11.866;2023-08-06T01:52:35;1.85;;;1.60;;
26181;SDS011;13927;51.534;11.866;2023-08-06T01:55:06;3.13;;;1.60;;
26181;SDS011;13927;51.534;11.866;2023-08-06T01:57:34;2.08;;;1.58;;
26181;SDS011;13927;51.534;11.866;2023-08-06T02:00:05;2.80;;;1.70;;
26181;SDS011;13927;51.534;11.866;2023-08-06T02:02:34;2.42;;;1.60;;
26181;SDS011;13927;51.534;11.866;2023-08-06T02:05:01;1.92;;;1.40;;
26181;SDS011;13927;51.534;11.866;2023-08-06T02:07:29;2.13;;;1.58;;
26181;SDS011;13927;51.534;11.866;2023-08-06T02:09:58;4.10;;;1.95;;
26181;SDS011;13927;51.534;11.866;2023-08-06T02:12:25;1.65;;;1.45;;
26181;SDS011;13927;51.534;11.866;2023-08-06T02:14:52;2.78;;;1.60;;
26181;SDS011;13927;51.534;11.866;2023-08-06T02:17:21;2.78;;;1.80;;
26181;SDS011;13927;51.534;11.866;2023-08-06T02:19:51;2.17;;;1.67;;
26181;SDS011;13927;51.534;11.866;2023-08-06T02:22:19;2.83;;;1.70;;
26181;SDS011;13927;51.534;11.866;2023-08-06T02:24:49;2.25;;;1.92;;
26181;SDS011;13927;51.534;11.866;2023-08-06T02:27:18;5.03;;;2.40;;
26181;SDS011;13927;51.534;11.866;2023-08-06T02:29:50;2.70;;;2.20;;
26181;SDS011;13927;51.534;11.866;2023-08-06T02:32:18;2.88;;;2.08;;
26181;SDS011;13927;51.534;11.866;2023-08-06T02:34:50;3.20;;;1.88;;
26181;SDS011;13927;51.534;11.866;2023-08-06T02:37:22;2.50;;;1.83;;
26181;SDS011;13927;51.534;11.866;2023-08-06T02:39:57;1.92;;;1.58;;
26181;SDS011;13927;51.534;11.866;2023-08-06T02:42:32;2.60;;;1.88;;
26181;SDS011;13927;51.534;11.866;2023-08-06T02:45:02;2.13;;;1.80;;
26181;SDS011;13927;51.534;11.866;2023-08-06T02:47:38;2.63;;;1.70;;
26181;SDS011;13927;51.534;11.866;2023-08-06T02:50:16;2.15;;;1.55;;
26181;SDS011;13927;51.534;11.866;2023-08-06T02:52:49;3.90;;;1.73;;
26181;SDS011;13927;51.534;11.866;2023-08-06T02:55:18;2.40;;;2.00;;
26181;SDS011;13927;51.534;11.866;2023-08-06T02:57:46;3.00;;;1.75;;
26181;SDS011;13927;51.534;11.866;2023-08-06T03:00:13;3.58;;;1.88;;
26181;SDS011;13927;51.534;11.866;2023-08-06T03:02:42;7.55;;;1.80;;
26181;SDS011;13927;51.534;11.866;2023-08-06T03:05:14;2.78;;;2.00;;
26181;SDS011;13927;51.534;11.866;2023-08-06T03:07:43;3.15;;;2.00;;
26181;SDS011;13927;51.534;11.866;2023-08-06T03:10:14;2.90;;;2.00;;
26181;SDS011;13927;51.534;11.866;2023-08-06T03:12:40;2.38;;;2.17;;
26181;SDS011;13927;51.534;11.866;2023-08-06T03:15:06;4.18;;;2.20;;
26181;SDS011;13927;51.534;11.866;2023-08-06T03:17:32;3.15;;;2.22;;
26181;SDS011;13927;51.534;11.866;2023-08-06T03:19:58;2.92;;;2.10;;
26181;SDS011;13927;51.534;11.866;2023-08-06T03:22:23;3.28;;;2.03;;
26181;SDS011;13927;51.534;11.866;2023-08-06T03:24:52;2.20;;;2.00;;
26181;SDS011;13927;51.534;11.866;2023-08-06T03:27:18;3.55;;;2.65;;
26181;SDS011;13927;51.534;11.866;2023-08-06T03:29:44;2.53;;;2.20;;
26181;SDS011;13927;51.534;11.866;2023-08-06T03:32:09;2.65;;;2.17;;
26181;SDS011;13927;51.534;11.866;2023-08-06T03:34:35;2.90;;;2.20;;
26181;SDS011;13927;51.534;11.866;2023-08-06T03:37:01;2.80;;;2.50;;
26181;SDS011;13927;51.534;11.866;2023-08-06T03:39:26;3.03;;;2.38;;
26181;SDS011;13927;51.534;11.866;2023-08-06T03:41:52;2.92;;;2.65;;
26181;SDS011;13927;51.534;11.866;2023-08-06T03:44:18;3.40;;;2.78;;
26181;SDS011;13927;51.534;11.866;2023-08-06T03:46:44;3.58;;;3.28;;
26181;SDS011;13927;51.534;11.866;2023-08-06T03:49:09;3.55;;;3.15;;
26181;SDS011;13927;51.534;11.866;2023-08-06T03:51:35;3.10;;;2.70;;
26181;SDS011;13927;51.534;11.866;2023-08-06T03:54:01;4.55;;;2.80;;
26181;SDS011;13927;51.534;11.866;2023-08-06T03:56:26;4.20;;;2.80;;
26181;SDS011;13927;51.534;11.866;2023-08-06T03:58:52;3.28;;;2.78;;
26181;SDS011;13927;51.534;11.866;2023-08-06T04:01:18;4.40;;;3.20;;
26181;SDS011;13927;51.534;11.866;2023-08-06T04:03:44;3.08;;;2.55;;
26181;SDS011;13927;51.534;11.866;2023-08-06T04:06:10;2.90;;;2.70;;
26181;SDS011;13927;51.534;11.866;2023-08-06T04:08:35;4.53;;;3.25;;
26181;SDS011;13927;51.534;11.866;2023-08-06T04:11:01;3.45;;;2.53;;
26181;SDS011;13927;51.534;11.866;2023-08-06T04:13:27;3.22;;;2.60;;
26181;SDS011;13927;51.534;11.866;2023-08-06T04:15:52;4.38;;;2.70;;
26181;SDS011;13927;51.534;11.866;2023-08-06T04:18:19;4.85;;;3.13;;
26181;SDS011;13927;51.534;11.866;2023-08-06T04:20:45;4.68;;;2.65;;
26181;SDS011;13927;51.534;11.866;2023-08-06T04:23:12;3.30;;;3.00;;
26181;SDS011;13927;51.534;11.866;2023-08-06T04:25:38;3.38;;;2.90;;
26181;SDS011;13927;51.534;11.866;2023-08-06T04:28:04;3.00;;;2.70;;
26181;SDS011;13927;51.534;11.866;2023-08-06T04:30:30;7.82;;;3.25;;
26181;SDS011;13927;51.534;11.866;2023-08-06T04:32:56;3.33;;;2.58;;
26181;SDS011;13927;51.534;11.866;2023-08-06T04:35:23;3.10;;;2.80;;
26181;SDS011;13927;51.534;11.866;2023-08-06T04:37:49;3.08;;;2.60;;
26181;SDS011;13927;51.534;11.866;2023-08-06T04:40:14;4.40;;;2.83;;
26181;SDS011;13927;51.534;11.866;2023-08-06T04:42:40;3.38;;;2.83;;
26181;SDS011;13927;51.534;11.866;2023-08-06T04:45:06;2.97;;;2.58;;
26181;SDS011;13927;51.534;11.866;2023-08-06T04:47:32;3.88;;;2.78;;
26181;SDS011;13927;51.534;11.866;2023-08-06T04:49:58;3.63;;;2.70;;
26181;SDS011;13927;51.534;11.866;2023-08-06T04:52:24;7.65;;;3.83;;
26181;SDS011;13927;51.534;11.866;2023-08-06T04:54:53;3.67;;;2.75;;
26181;SDS011;13927;51.534;11.866;2023-08-06T04:57:19;6.10;;;3.05;;
26181;SDS011;13927;51.534;11.866;2023-08-06T04:59:45;3.53;;;2.50;;
26181;SDS011;13927;51.534;11.866;2023-08-06T05:02:11;3.97;;;2.60;;
26181;SDS011;13927;51.534;11.866;2023-08-06T05:04:37;4.47;;;2.67;;
26181;SDS011;13927;51.534;11.866;2023-08-06T05:07:03;3.70;;;2.80;;
26181;SDS011;13927;51.534;11.866;2023-08-06T05:09:30;3.70;;;2.90;;
26181;SDS011;13927;51.534;11.866;2023-08-06T05:11:56;3.05;;;2.50;;
26181;SDS011;13927;51.534;11.866;2023-08-06T05:14:22;4.10;;;2.25;;
26181;SDS011;13927;51.534;11.866;2023-08-06T05:16:47;4.43;;;2.80;;
26181;SDS011;13927;51.534;11.866;2023-08-06T05:19:13;4.53;;;2.72;;
26181;SDS011;13927;51.534;11.866;2023-08-06T05:21:39;3.30;;;2.67;;
26181;SDS011;13927;51.534;11.866;2023-08-06T05:24:05;3.60;;;3.00;;
26181;SDS011;13927;51.534;11.866;2023-08-06T05:26:30;4.95;;;3.00;;
26181;SDS011;13927;51.534;11.866;2023-08-06T05:28:56;3.13;;;2.83;;
26181;SDS011;13927;51.534;11.866;2023-08-06T05:31:22;3.90;;;3.47;;
26181;SDS011;13927;51.534;11.866;2023-08-06T05:33:48;3.95;;;3.55;;
26181;SDS011;13927;51.534;11.866;2023-08-06T05:36:14;4.35;;;3.95;;
26181;SDS011;13927;51.534;11.866;2023-08-06T05:38:39;5.00;;;3.65;;
26181;SDS011;13927;51.534;11.866;2023-08-06T05:41:05;4.95;;;4.05;;
26181;SDS011;13927;51.534;11.866;2023-08-06T05:43:31;4.90;;;4.32;;
26181;SDS011;13927;51.534;11.866;2023-08-06T05:45:57;5.20;;;4.13;;
26181;SDS011;13927;51.534;11.866;2023-08-06T05:48:22;7.32;;;4.30;;
26181;SDS011;13927;51.534;11.866;2023-08-06T05:50:50;5.50;;;4.43;;
26181;SDS011;13927;51.534;11.866;2023-08-06T05:53:17;4.60;;;4.10;;
26181;SDS011;13927;51.534;11.866;2023-08-06T05:55:43;4.20;;;3.80;;
26181;SDS011;13927;51.534;11.866;2023-08-06T05:58:08;4.13;;;3.72;;
26181;SDS011;13927;51.534;11.866;2023-08-06T06:00:35;4.68;;;3.28;;
26181;SDS011;13927;51.534;11.866;2023-08-06T06:03:01;3.92;;;3.53;;
26181;SDS011;13927;51.534;11.866;2023-08-06T06:05:27;4.35;;;3.50;;
26181;SDS011;13927;51.534;11.866;2023-08-06T06:07:53;3.97;;;3.00;;
26181;SDS011;13927;51.534;11.866;2023-08-06T06:10:19;4.72;;;3.53;;
26181;SDS011;13927;51.534;11.866;2023-08-06T06:12:45;4.65;;;3.25;;
26181;SDS011;13927;51.534;11.866;2023-08-06T06:15:11;4.03;;;3.63;;
26181;SDS011;13927;51.534;11.866;2023-08-06T06:17:37;5.07;;;4.07;;
26181;SDS011;13927;51.534;11.866;2023-08-06T06:20:03;4.20;;;3.80;;
26181;SDS011;13927;51.534;11.866;2023-08-06T06:22:30;4.95;;;3.50;;
26181;SDS011;13927;51.534;11.866;2023-08-06T06:24:56;6.55;;;3.33;;
26181;SDS011;13927;51.534;11.866;2023-08-06T06:27:21;3.70;;;3.30;;
26181;SDS011;13927;51.534;11.866;2023-08-06T06:29:47;3.85;;;3.40;;
26181;SDS011;13927;51.534;11.866;2023-08-06T06:32:13;3.65;;;3.33;;
26181;SDS011;13927;51.534;11.866;2023-08-06T06:34:39;3.30;;;2.90;;
26181;SDS011;13927;51.534;11.866;2023-08-06T06:37:05;4.70;;;3.60;;
26181;SDS011;13927;51.534;11.866;2023-08-06T06:39:30;4.15;;;3.13;;
26181;SDS011;13927;51.534;11.866;2023-08-06T06:41:56;3.22;;;2.92;;
26181;SDS011;13927;51.534;11.866;2023-08-06T06:44:22;3.97;;;3.47;;
26181;SDS011;13927;51.534;11.866;2023-08-06T06:46:48;3.83;;;3.42;;
26181;SDS011;13927;51.534;11.866;2023-08-06T06:49:14;4.95;;;3.50;;
26181;SDS011;13927;51.534;11.866;2023-08-06T06:51:39;4.50;;;3.47;;
26181;SDS011;13927;51.534;11.866;2023-08-06T06:54:05;4.05;;;3.50;;
26181;SDS011;13927;51.534;11.866;2023-08-06T06:56:31;4.35;;;3.03;;
26181;SDS011;13927;51.534;11.866;2023-08-06T06:58:57;5.60;;;3.38;;
26181;SDS011;13927;51.534;11.866;2023-08-06T07:01:23;3.83;;;3.30;;
26181;SDS011;13927;51.534;11.866;2023-08-06T07:03:49;4.40;;;4.00;;
26181;SDS011;13927;51.534;11.866;2023-08-06T07:06:15;4.03;;;3.30;;
26181;SDS011;13927;51.534;11.866;2023-08-06T07:08:43;3.45;;;3.15;;
26181;SDS011;13927;51.534;11.866;2023-08-06T07:11:10;4.75;;;3.42;;
26181;SDS011;13927;51.534;11.866;2023-08-06T07:13:36;3.60;;;3.10;;
26181;SDS011;13927;51.534;11.866;2023-08-06T07:16:02;3.75;;;3.15;;
26181;SDS011;13927;51.534;11.866;2023-08-06T07:18:29;3.35;;;2.85;;
26181;SDS011;13927;51.534;11.866;2023-08-06T07:20:55;2.95;;;2.30;;
26181;SDS011;13927;51.534;11.866;2023-08-06T07:23:22;2.75;;;2.50;;
26181;SDS011;13927;51.534;11.866;2023-08-06T07:25:51;4.07;;;3.03;;
26181;SDS011;13927;51.534;11.866;2023-08-06T07:28:17;3.65;;;2.67;;
26181;SDS011;13927;51.534;11.866;2023-08-06T07:30:44;2.63;;;2.42;;
26181;SDS011;13927;51.534;11.866;2023-08-06T07:33:11;3.55;;;3.15;;
26181;SDS011;13927;51.534;11.866;2023-08-06T07:35:37;4.68;;;3.03;;
26181;SDS011;13927;51.534;11.866;2023-08-06T07:38:04;3.00;;;2.70;;
26181;SDS011;13927;51.534;11.866;2023-08-06T07:40:30;4.30;;;2.80;;
26181;SDS011;13927;51.534;11.866;2023-08-06T07:42:56;3.65;;;2.80;;
26181;SDS011;13927;51.534;11.866;2023-08-06T07:45:23;3.17;;;2.88;;
26181;SDS011;13927;51.534;11.866;2023-08-06T07:47:50;3.38;;;2.60;;
26181;SDS011;13927;51.534;11.866;2023-08-06T07:50:16;4.70;;;2.55;;
26181;SDS011;13927;51.534;11.866;2023-08-06T07:52:42;2.97;;;2.63;;
26181;SDS011;13927;51.534;11.866;2023-08-06T07:55:09;3.58;;;2.50;;
26181;SDS011;13927;51.534;11.866;2023-08-06T07:57:35;5.00;;;2.55;;
26181;SDS011;13927;51.534;11.866;2023-08-06T08:00:03;5.70;;;2.40;;
26181;SDS011;13927;51.534;11.866;2023-08-06T08:02:29;3.45;;;2.35;;
26181;SDS011;13927;51.534;11.866;2023-08-06T08:04:56;2.92;;;2.42;;
26181;SDS011;13927;51.534;11.866;2023-08-06T08:07:21;3.25;;;2.20;;
26181;SDS011;13927;51.534;11.866;2023-08-06T08:09:48;3.60;;;2.53;;
26181;SDS011;13927;51.534;11.866;2023-08-06T08:12:14;11.23;;;2.85;;
26181;SDS011;13927;51.534;11.866;2023-08-06T08:14:40;3.58;;;2.50;;
26181;SDS011;13927;51.534;11.866;2023-08-06T08:17:06;3.90;;;2.25;;
26181;SDS011;13927;51.534;11.866;2023-08-06T08:19:32;3.10;;;2.50;;
26181;SDS011;13927;51.534;11.866;2023-08-06T08:21:58;3.03;;;2.42;;
26181;SDS011;13927;51.534;11.866;2023-08-06T08:24:25;3.33;;;2.80;;
26181;SDS011;13927;51.534;11.866;2023-08-06T08:26:52;2.47;;;2.03;;
26181;SDS011;13927;51.534;11.866;2023-08-06T08:29:22;3.50;;;2.45;;
26181;SDS011;13927;51.534;11.866;2023-08-06T08:31:48;3.42;;;2.88;;
26181;SDS011;13927;51.534;11.866;2023-08-06T08:34:18;4.47;;;2.55;;
26181;SDS011;13927;51.534;11.866;2023-08-06T08:36:44;4.68;;;2.38;;
26181;SDS011;13927;51.534;11.866;2023-08-06T08:39:14;3.38;;;2.50;;
26181;SDS011;13927;51.534;11.866;2023-08-06T08:41:40;4.75;;;2.60;;
26181;SDS011;13927;51.534;11.866;2023-08-06T08:44:08;2.80;;;2.03;;
26181;SDS011;13927;51.534;11.866;2023-08-06T08:46:36;2.47;;;2.08;;
26181;SDS011;13927;51.534;11.866;2023-08-06T08:49:04;5.15;;;2.42;;
26181;SDS011;13927;51.534;11.866;2023-08-06T08:51:31;2.95;;;2.20;;
26181;SDS011;13927;51.534;11.866;2023-08-06T08:54:00;4.90;;;2.35;;
26181;SDS011;13927;51.534;11.866;2023-08-06T08:56:29;2.90;;;2.60;;
26181;SDS011;13927;51.534;11.866;2023-08-06T08:58:56;2.75;;;2.22;;
26181;SDS011;13927;51.534;11.866;2023-08-06T09:01:23;2.58;;;2.15;;
26181;SDS011;13927;51.534;11.866;2023-08-06T09:03:49;2.35;;;2.00;;
26181;SDS011;13927;51.534;11.866;2023-08-06T09:06:17;2.90;;;2.38;;
26181;SDS011;13927;51.534;11.866;2023-08-06T09:08:48;2.67;;;2.38;;
26181;SDS011;13927;51.534;11.866;2023-08-06T09:11:22;2.33;;;1.70;;
26181;SDS011;13927;51.534;11.866;2023-08-06T09:13:49;2.20;;;1.90;;
26181;SDS011;13927;51.534;11.866;2023-08-06T09:16:15;2.42;;;1.77;;
26181;SDS011;13927;51.534;11.866;2023-08-06T09:18:41;3.53;;;2.30;;
26181;SDS011;13927;51.534;11.866;2023-08-06T09:21:11;3.03;;;1.75;;
26181;SDS011;13927;51.534;11.866;2023-08-06T09:23:43;2.10;;;1.75;;
26181;SDS011;13927;51.534;11.866;2023-08-06T09:26:11;2.28;;;1.92;;
26181;SDS011;13927;51.534;11.866;2023-08-06T09:28:39;2.30;;;1.73;;
26181;SDS011;13927;51.534;11.866;2023-08-06T09:31:07;3.65;;;2.20;;
26181;SDS011;13927;51.534;11.866;2023-08-06T09:33:36;4.55;;;2.00;;
26181;SDS011;13927;51.534;11.866;2023-08-06T09:36:07;2.70;;;1.67;;
26181;SDS011;13927;51.534;11.866;2023-08-06T09:38:40;2.30;;;1.90;;
26181;SDS011;13927;51.534;11.866;2023-08-06T09:41:08;2.05;;;1.70;;
26181;SDS011;13927;51.534;11.866;2023-08-06T09:43:41;3.15;;;1.80;;
26181;SDS011;13927;51.534;11.866;2023-08-06T09:46:11;2.90;;;1.98;;
26181;SDS011;13927;51.534;11.866;2023-08-06T09:51:11;3.65;;;1.85;;
26181;SDS011;13927;51.534;11.866;2023-08-06T09:53:40;2.90;;;1.83;;
26181;SDS011;13927;51.534;11.866;2023-08-06T09:56:07;1.83;;;1.58;;
26181;SDS011;13927;51.534;11.866;2023-08-06T09:58:35;1.67;;;1.40;;
26181;SDS011;13927;51.534;11.866;2023-08-06T10:01:03;3.08;;;1.90;;
26181;SDS011;13927;51.534;11.866;2023-08-06T10:03:30;2.03;;;1.70;;
26181;SDS011;13927;51.534;11.866;2023-08-06T10:05:57;3.25;;;1.50;;
26181;SDS011;13927;51.534;11.866;2023-08-06T10:08:24;1.90;;;1.70;;
26181;SDS011;13927;51.534;11.866;2023-08-06T10:10:50;2.70;;;1.70;;
26181;SDS011;13927;51.534;11.866;2023-08-06T10:13:17;2.00;;;1.50;;
26181;SDS011;13927;51.534;11.866;2023-08-06T10:15:47;3.05;;;1.90;;
26181;SDS011;13927;51.534;11.866;2023-08-06T10:18:15;1.60;;;1.35;;
26181;SDS011;13927;51.534;11.866;2023-08-06T10:20:46;2.72;;;1.77;;
26181;SDS011;13927;51.534;11.866;2023-08-06T10:23:13;1.83;;;1.65;;
26181;SDS011;13927;51.534;11.866;2023-08-06T10:25:40;2.05;;;1.50;;
26181;SDS011;13927;51.534;11.866;2023-08-06T10:28:08;2.30;;;1.75;;
26181;SDS011;13927;51.534;11.866;2023-08-06T10:30:42;2.30;;;1.60;;
26181;SDS011;13927;51.534;11.866;2023-08-06T10:33:13;1.38;;;1.25;;
26181;SDS011;13927;51.534;11.866;2023-08-06T10:35:42;2.15;;;1.67;;
26181;SDS011;13927;51.534;11.866;2023-08-06T10:38:18;2.20;;;1.50;;
26181;SDS011;13927;51.534;11.866;2023-08-06T10:48:36;2.15;;;1.27;;
26181;SDS011;13927;51.534;11.866;2023-08-06T10:51:12;2.55;;;1.58;;
26181;SDS011;13927;51.534;11.866;2023-08-06T10:53:46;1.63;;;1.42;;
26181;SDS011;13927;51.534;11.866;2023-08-06T10:56:18;2.53;;;1.42;;
26181;SDS011;13927;51.534;11.866;2023-08-06T10:58:48;2.38;;;1.60;;
26181;SDS011;13927;51.534;11.866;2023-08-06T11:01:17;1.88;;;1.40;;
26181;SDS011;13927;51.534;11.866;2023-08-06T11:03:46;2.38;;;1.48;;
26181;SDS011;13927;51.534;11.866;2023-08-06T11:06:19;1.45;;;1.20;;
26181;SDS011;13927;51.534;11.866;2023-08-06T11:08:50;1.83;;;1.23;;
26181;SDS011;13927;51.534;11.866;2023-08-06T11:11:21;1.45;;;1.23;;
26181;SDS011;13927;51.534;11.866;2023-08-06T11:13:49;1.67;;;1.23;;
26181;SDS011;13927;51.534;11.866;2023-08-06T11:16:22;2.47;;;1.50;;
26181;SDS011;13927;51.534;11.866;2023-08-06T11:18:49;1.80;;;1.33;;
26181;SDS011;13927;51.534;11.866;2023-08-06T11:21:19;2.25;;;1.52;;
26181;SDS011;13927;51.534;11.866;2023-08-06T11:23:47;1.75;;;1.65;;
26181;SDS011;13927;51.534;11.866;2023-08-06T11:26:23;2.53;;;1.85;;
26181;SDS011;13927;51.534;11.866;2023-08-06T11:28:50;2.85;;;1.50;;
26181;SDS011;13927;51.534;11.866;2023-08-06T11:31:20;1.48;;;1.20;;
26181;SDS011;13927;51.534;11.866;2023-08-06T11:33:49;2.22;;;1.85;;
26181;SDS011;13927;51.534;11.866;2023-08-06T11:36:29;1.58;;;1.13;;
26181;SDS011;13927;51.534;11.866;2023-08-06T11:38:57;1.65;;;1.30;;
26181;SDS011;13927;51.534;11.866;2023-08-06T11:41:25;2.30;;;1.50;;
26181;SDS011;13927;51.534;11.866;2023-08-06T11:43:57;1.90;;;1.38;;
26181;SDS011;13927;51.534;11.866;2023-08-06T11:46:25;3.33;;;1.20;;
26181;SDS011;13927;51.534;11.866;2023-08-06T11:49:00;2.03;;;1.40;;
26181;SDS011;13927;51.534;11.866;2023-08-06T11:51:26;2.75;;;1.58;;
26181;SDS011;13927;51.534;11.866;2023-08-06T11:53:58;1.95;;;1.30;;
26181;SDS011;13927;51.534;11.866;2023-08-06T11:56:25;2.42;;;1.60;;
26181;SDS011;13927;51.534;11.866;2023-08-06T11:58:53;2.47;;;1.75;;
26181;SDS011;13927;51.534;11.866;2023-08-06T12:01:20;3.08;;;2.28;;
26181;SDS011;13927;51.534;11.866;2023-08-06T12:03:46;1.60;;;1.50;;
26181;SDS011;13927;51.534;11.866;2023-08-06T12:06:13;2.53;;;1.92;;
26181;SDS011;13927;51.534;11.866;2023-08-06T12:08:39;2.03;;;1.63;;
26181;SDS011;13927;51.534;11.866;2023-08-06T12:11:07;1.80;;;1.33;;
26181;SDS011;13927;51.534;11.866;2023-08-06T12:13:34;2.60;;;1.58;;
26181;SDS011;13927;51.534;11.866;2023-08-06T12:16:00;2.42;;;1.40;;
26181;SDS011;13927;51.534;11.866;2023-08-06T12:18:26;3.22;;;1.63;;
26181;SDS011;13927;51.534;11.866;2023-08-06T12:20:53;2.50;;;1.27;;
26181;SDS011;13927;51.534;11.866;2023-08-06T12:23:19;1.73;;;1.45;;
26181;SDS011;13927;51.534;11.866;2023-08-06T12:25:45;1.70;;;1.25;;
26181;SDS011;13927;51.534;11.866;2023-08-06T12:28:12;2.58;;;1.38;;
26181;SDS011;13927;51.534;11.866;2023-08-06T12:30:38;2.83;;;1.30;;
26181;SDS011;13927;51.534;11.866;2023-08-06T12:33:09;2.45;;;1.50;;
26181;SDS011;13927;51.534;11.866;2023-08-06T12:35:39;2.03;;;1.27;;
26181;SDS011;13927;51.534;11.866;2023-08-06T12:38:08;2.70;;;1.27;;
26181;SDS011;13927;51.534;11.866;2023-08-06T12:40:35;2.90;;;1.67;;
26181;SDS011;13927;51.534;11.866;2023-08-06T12:43:04;2.30;;;1.23;;
26181;SDS011;13927;51.534;11.866;2023-08-06T12:45:32;1.38;;;1.20;;
26181;SDS011;13927;51.534;11.866;2023-08-06T12:48:00;2.22;;;1.35;;
26181;SDS011;13927;51.534;11.866;2023-08-06T12:50:26;1.95;;;1.40;;
26181;SDS011;13927;51.534;11.866;2023-08-06T12:52:52;1.52;;;1.42;;
26181;SDS011;13927;51.534;11.866;2023-08-06T12:55:18;1.67;;;1.50;;
26181;SDS011;13927;51.534;11.866;2023-08-06T12:57:45;4.07;;;1.50;;
26181;SDS011;13927;51.534;11.866;2023-08-06T13:00:12;1.48;;;1.20;;
26181;SDS011;13927;51.534;11.866;2023-08-06T13:02:41;1.40;;;1.20;;
26181;SDS011;13927;51.534;11.866;2023-08-06T13:05:09;1.55;;;1.05;;
26181;SDS011;13927;51.534;11.866;2023-08-06T13:07:37;2.08;;;1.10;;
26181;SDS011;13927;51.534;11.866;2023-08-06T13:10:05;3.30;;;1.35;;
26181;SDS011;13927;51.534;11.866;2023-08-06T13:12:32;3.00;;;1.30;;
26181;SDS011;13927;51.534;11.866;2023-08-06T13:14:59;1.77;;;1.40;;
26181;SDS011;13927;51.534;11.866;2023-08-06T13:17:25;2.05;;;1.40;;
26181;SDS011;13927;51.534;11.866;2023-08-06T13:19:52;2.90;;;1.30;;
26181;SDS011;13927;51.534;11.866;2023-08-06T13:22:17;2.33;;;1.10;;
26181;SDS011;13927;51.534;11.866;2023-08-06T13:24:44;1.92;;;1.30;;
26181;SDS011;13927;51.534;11.866;2023-08-06T13:27:10;2.05;;;1.55;;
26181;SDS011;13927;51.534;11.866;2023-08-06T13:29:37;2.17;;;1.08;;
26181;SDS011;13927;51.534;11.866;2023-08-06T13:32:03;1.92;;;1.27;;
26181;SDS011;13927;51.534;11.866;2023-08-06T13:34:30;1.33;;;1.10;;
26181;SDS011;13927;51.534;11.866;2023-08-06T13:36:56;1.50;;;1.00;;
26181;SDS011;13927;51.534;11.866;2023-08-06T13:39:22;1.10;;;0.98;;
26181;SDS011;13927;51.534;11.866;2023-08-06T13:41:48;2.42;;;1.38;;
26181;SDS011;13927;51.534;11.866;2023-08-06T13:44:14;1.20;;;1.10;;
26181;SDS011;13927;51.534;11.866;2023-08-06T13:46:42;2.60;;;1.05;;
26181;SDS011;13927;51.534;11.866;2023-08-06T13:49:08;1.90;;;1.10;;
26181;SDS011;13927;51.534;11.866;2023-08-06T13:51:35;2.45;;;1.23;;
26181;SDS011;13927;51.534;11.866;2023-08-06T13:54:03;1.83;;;1.17;;
26181;SDS011;13927;51.534;11.866;2023-08-06T13:56:29;1.52;;;1.20;;
26181;SDS011;13927;51.534;11.866;2023-08-06T13:58:56;1.42;;;1.30;;
26181;SDS011;13927;51.534;11.866;2023-08-06T14:01:22;1.45;;;1.10;;
26181;SDS011;13927;51.534;11.866;2023-08-06T14:03:49;1.90;;;0.90;;
26181;SDS011;13927;51.534;11.866;2023-08-06T14:06:15;1.42;;;1.20;;
26181;SDS011;13927;51.534;11.866;2023-08-06T14:08:42;1.60;;;1.30;;
26181;SDS011;13927;51.534;11.866;2023-08-06T14:11:08;1.58;;;1.13;;
26181;SDS011;13927;51.534;11.866;2023-08-06T14:13:35;1.95;;;1.00;;
26181;SDS011;13927;51.534;11.866;2023-08-06T14:16:01;2.20;;;1.48;;
26181;SDS011;13927;51.534;11.866;2023-08-06T14:18:28;1.67;;;1.42;;
26181;SDS011;13927;51.534;11.866;2023-08-06T14:20:54;1.98;;;1.10;;
26181;SDS011;13927;51.534;11.866;2023-08-06T14:23:20;1.10;;;1.00;;
26181;SDS011;13927;51.534;11.866;2023-08-06T14:25:46;1.20;;;1.00;;
26181;SDS011;13927;51.534;11.866;2023-08-06T14:28:13;1.95;;;1.10;;
26181;SDS011;13927;51.534;11.866;2023-08-06T14:30:39;1.70;;;1.25;;
26181;SDS011;13927;51.534;11.866;2023-08-06T14:33:05;3.05;;;1.17;;
26181;SDS011;13927;51.534;11.866;2023-08-06T14:35:32;1.30;;;1.10;;
26181;SDS011;13927;51.534;11.866;2023-08-06T14:37:59;1.73;;;1.23;;
26181;SDS011;13927;51.534;11.866;2023-08-06T14:40:25;1.17;;;0.88;;
26181;SDS011;13927;51.534;11.866;2023-08-06T14:42:58;2.50;;;1.10;;
26181;SDS011;13927;51.534;11.866;2023-08-06T14:45:26;3.28;;;1.30;;
26181;SDS011;13927;51.534;11.866;2023-08-06T14:47:52;1.75;;;1.30;;
26181;SDS011;13927;51.534;11.866;2023-08-06T14:50:19;2.03;;;1.42;;
26181;SDS011;13927;51.534;11.866;2023-08-06T14:52:45;3.42;;;1.42;;
26181;SDS011;13927;51.534;11.866;2023-08-06T14:55:11;1.73;;;0.98;;